sensor_id;sensor_type;location;lat;lon;timestamp;P1;durP1;ratioP1;P2;durP2;ratioP2
25443;SDS011;13368;52.346;4.678;2023-04-15T00:00:00;15.5;;;9.8;;
25443;SDS011;13368;52.346;4.678;2023-04-15T00:05:00;14.0;;;10.2;;
25443;SDS011;13368;52.346;4.678;2023-04-15T00:10:00;20.4;;;11.6;;
25443;SDS011;13368;52.346;4.678;2023-04-15T00:15:00;15.4;;;9.9;;
25443;SDS011;13368;52.346;4.678;2023-04-15T00:20:00;17.9;;;12.3;;
25443;SDS011;13368;52.346;4.678;2023-04-15T00:25:00;12.7;;;8.8;;
25443;SDS011;13368;52.346;4.678;2023-04-15T00:30:00;17.6;;;9.5;;
25443;SDS011;13368;52.346;4.678;2023-04-15T00:35:00;15.1;;;9.8;;
25443;SDS011;13368;52.346;4.678;2023-04-15T00:40:00;14.5;;;9.9;;
25443;SDS011;13368;52.346;4.678;2023-04-15T00:45:00;17.2;;;9.8;;
25443;SDS011;13368;52.346;4.678;2023-04-15T00:50:00;13.1;;;9.2;;
25443;SDS011;13368;52.346;4.678;2023-04-15T00:55:00;14.1;;;9.0;;
25443;SDS011;13368;52.346;4.678;2023-04-15T01:00:00;13.6;;;8.8;;
25443;SDS011;13368;52.346;4.678;2023-04-15T01:05:00;13.4;;;8.6;;
25443;SDS011;13368;52.346;4.678;2023-04-15T01:10:00;11.6;;;8.0;;
25443;SDS011;13368;52.346;4.678;2023-04-15T01:15:00;14.3;;;8.7;;
25443;SDS011;13368;52.346;4.678;2023-04-15T01:20:00;11.6;;;8.4;;
25443;SDS011;13368;52.346;4.678;2023-04-15T01:25:01;15.7;;;8.8;;
25443;SDS011;13368;52.346;4.678;2023-04-15T01:30:00;12.3;;;7.7;;
25443;SDS011;13368;52.346;4.678;2023-04-15T01:35:00;13.0;;;7.7;;
25443;SDS011;13368;52.346;4.678;2023-04-15T01:40:00;14.8;;;7.6;;
25443;SDS011;13368;52.346;4.678;2023-04-15T01:45:00;17.1;;;9.0;;
25443;SDS011;13368;52.346;4.678;2023-04-15T01:50:00;17.0;;;9.1;;
25443;SDS011;13368;52.346;4.678;2023-04-15T01:55:00;16.8;;;9.4;;
25443;SDS011;13368;52.346;4.678;2023-04-15T02:00:00;13.7;;;8.6;;
25443;SDS011;13368;52.346;4.678;2023-04-15T02:05:00;14.8;;;8.7;;
25443;SDS011;13368;52.346;4.678;2023-04-15T02:10:00;15.4;;;9.5;;
25443;SDS011;13368;52.346;4.678;2023-04-15T02:15:00;17.4;;;10.5;;
25443;SDS011;13368;52.346;4.678;2023-04-15T02:20:00;15.7;;;9.6;;
25443;SDS011;13368;52.346;4.678;2023-04-15T02:25:00;16.6;;;10.0;;
25443;SDS011;13368;52.346;4.678;2023-04-15T02:30:00;18.4;;;10.1;;
25443;SDS011;13368;52.346;4.678;2023-04-15T02:35:01;13.0;;;9.4;;
25443;SDS011;13368;52.346;4.678;2023-04-15T02:40:00;16.2;;;9.8;;
25443;SDS011;13368;52.346;4.678;2023-04-15T02:45:00;13.9;;;10.4;;
25443;SDS011;13368;52.346;4.678;2023-04-15T02:50:01;17.0;;;10.3;;
25443;SDS011;13368;52.346;4.678;2023-04-15T02:55:00;17.0;;;10.8;;
25443;SDS011;13368;52.346;4.678;2023-04-15T03:00:00;15.8;;;10.2;;
25443;SDS011;13368;52.346;4.678;2023-04-15T03:05:00;16.6;;;10.5;;
25443;SDS011;13368;52.346;4.678;2023-04-15T03:10:00;15.4;;;9.5;;
25443;SDS011;13368;52.346;4.678;2023-04-15T03:15:00;16.2;;;9.4;;
25443;SDS011;13368;52.346;4.678;2023-04-15T03:20:00;15.6;;;9.7;;
25443;SDS011;13368;52.346;4.678;2023-04-15T03:25:00;17.3;;;9.7;;
25443;SDS011;13368;52.346;4.678;2023-04-15T03:30:00;15.8;;;10.0;;
25443;SDS011;13368;52.346;4.678;2023-04-15T03:35:00;14.8;;;9.8;;
25443;SDS011;13368;52.346;4.678;2023-04-15T03:40:00;15.0;;;9.4;;
25443;SDS011;13368;52.346;4.678;2023-04-15T03:45:00;14.6;;;8.7;;
25443;SDS011;13368;52.346;4.678;2023-04-15T03:50:00;15.2;;;9.2;;
25443;SDS011;13368;52.346;4.678;2023-04-15T03:55:00;13.0;;;8.5;;
25443;SDS011;13368;52.346;4.678;2023-04-15T04:00:00;16.3;;;9.3;;
25443;SDS011;13368;52.346;4.678;2023-04-15T04:05:00;15.2;;;8.7;;
25443;SDS011;13368;52.346;4.678;2023-04-15T04:10:00;16.5;;;9.4;;
25443;SDS011;13368;52.346;4.678;2023-04-15T04:15:00;15.7;;;9.0;;
25443;SDS011;13368;52.346;4.678;2023-04-15T04:20:00;17.2;;;9.8;;
25443;SDS011;13368;52.346;4.678;2023-04-15T04:25:00;16.2;;;10.1;;
25443;SDS011;13368;52.346;4.678;2023-04-15T04:30:00;16.9;;;9.8;;
25443;SDS011;13368;52.346;4.678;2023-04-15T04:35:00;18.5;;;9.8;;
25443;SDS011;13368;52.346;4.678;2023-04-15T04:40:00;20.6;;;10.4;;
25443;SDS011;13368;52.346;4.678;2023-04-15T04:45:00;17.1;;;10.6;;
25443;SDS011;13368;52.346;4.678;2023-04-15T04:50:00;16.5;;;10.3;;
25443;SDS011;13368;52.346;4.678;2023-04-15T04:55:00;18.9;;;10.1;;
25443;SDS011;13368;52.346;4.678;2023-04-15T05:00:00;18.6;;;10.5;;
25443;SDS011;13368;52.346;4.678;2023-04-15T05:05:00;16.3;;;10.3;;
25443;SDS011;13368;52.346;4.678;2023-04-15T05:10:00;21.0;;;11.6;;
25443;SDS011;13368;52.346;4.678;2023-04-15T05:15:00;17.2;;;11.1;;
25443;SDS011;13368;52.346;4.678;2023-04-15T05:20:00;19.0;;;10.4;;
25443;SDS011;13368;52.346;4.678;2023-04-15T05:25:00;18.1;;;11.3;;
25443;SDS011;13368;52.346;4.678;2023-04-15T05:30:00;17.9;;;11.4;;
25443;SDS011;13368;52.346;4.678;2023-04-15T05:35:00;22.5;;;11.8;;
25443;SDS011;13368;52.346;4.678;2023-04-15T05:40:00;22.2;;;12.6;;
25443;SDS011;13368;52.346;4.678;2023-04-15T05:45:00;20.9;;;12.6;;
25443;SDS011;13368;52.346;4.678;2023-04-15T05:50:00;20.1;;;12.6;;
25443;SDS011;13368;52.346;4.678;2023-04-15T05:55:00;21.1;;;13.2;;
25443;SDS011;13368;52.346;4.678;2023-04-15T06:00:00;22.5;;;12.3;;
25443;SDS011;13368;52.346;4.678;2023-04-15T06:05:00;26.3;;;13.1;;
25443;SDS011;13368;52.346;4.678;2023-04-15T06:10:00;21.6;;;12.8;;
25443;SDS011;13368;52.346;4.678;2023-04-15T06:15:00;21.9;;;13.6;;
25443;SDS011;13368;52.346;4.678;2023-04-15T06:20:00;22.2;;;13.0;;
25443;SDS011;13368;52.346;4.678;2023-04-15T06:25:00;23.0;;;13.3;;
25443;SDS011;13368;52.346;4.678;2023-04-15T06:30:00;21.6;;;13.5;;
25443;SDS011;13368;52.346;4.678;2023-04-15T06:35:00;22.3;;;13.1;;
25443;SDS011;13368;52.346;4.678;2023-04-15T06:40:00;23.1;;;13.9;;
25443;SDS011;13368;52.346;4.678;2023-04-15T06:45:00;21.2;;;12.5;;
25443;SDS011;13368;52.346;4.678;2023-04-15T06:50:00;20.4;;;12.1;;
25443;SDS011;13368;52.346;4.678;2023-04-15T06:55:00;20.7;;;12.9;;
25443;SDS011;13368;52.346;4.678;2023-04-15T07:00:00;22.7;;;12.1;;
25443;SDS011;13368;52.346;4.678;2023-04-15T07:05:00;21.2;;;12.3;;
25443;SDS011;13368;52.346;4.678;2023-04-15T07:10:00;22.6;;;11.4;;
25443;SDS011;13368;52.346;4.678;2023-04-15T07:15:00;22.2;;;12.0;;
25443;SDS011;13368;52.346;4.678;2023-04-15T07:20:00;17.8;;;10.9;;
25443;SDS011;13368;52.346;4.678;2023-04-15T07:25:00;18.6;;;10.1;;
25443;SDS011;13368;52.346;4.678;2023-04-15T07:30:00;16.4;;;10.2;;
25443;SDS011;13368;52.346;4.678;2023-04-15T07:35:00;17.2;;;9.9;;
25443;SDS011;13368;52.346;4.678;2023-04-15T07:40:00;14.1;;;8.5;;
25443;SDS011;13368;52.346;4.678;2023-04-15T07:45:00;14.1;;;8.2;;
25443;SDS011;13368;52.346;4.678;2023-04-15T07:50:00;8.8;;;5.8;;
25443;SDS011;13368;52.346;4.678;2023-04-15T07:55:00;9.9;;;6.3;;
25443;SDS011;13368;52.346;4.678;2023-04-15T08:00:00;11.4;;;6.4;;
25443;SDS011;13368;52.346;4.678;2023-04-15T08:05:00;12.7;;;6.1;;
25443;SDS011;13368;52.346;4.678;2023-04-15T08:10:00;8.9;;;5.9;;
25443;SDS011;13368;52.346;4.678;2023-04-15T08:15:00;9.2;;;5.5;;
25443;SDS011;13368;52.346;4.678;2023-04-15T08:20:00;11.8;;;6.8;;
25443;SDS011;13368;52.346;4.678;2023-04-15T08:25:00;13.0;;;7.2;;
25443;SDS011;13368;52.346;4.678;2023-04-15T08:30:00;11.3;;;7.0;;
25443;SDS011;13368;52.346;4.678;2023-04-15T08:35:00;11.7;;;6.9;;
25443;SDS011;13368;52.346;4.678;2023-04-15T08:40:00;13.2;;;8.0;;
25443;SDS011;13368;52.346;4.678;2023-04-15T08:45:00;13.0;;;7.3;;
25443;SDS011;13368;52.346;4.678;2023-04-15T08:50:00;11.7;;;7.0;;
25443;SDS011;13368;52.346;4.678;2023-04-15T08:55:01;11.0;;;6.6;;
25443;SDS011;13368;52.346;4.678;2023-04-15T09:00:00;11.0;;;5.4;;
25443;SDS011;13368;52.346;4.678;2023-04-15T09:05:00;11.1;;;5.0;;
25443;SDS011;13368;52.346;4.678;2023-04-15T09:10:00;8.7;;;5.8;;
25443;SDS011;13368;52.346;4.678;2023-04-15T09:15:00;9.4;;;5.5;;
25443;SDS011;13368;52.346;4.678;2023-04-15T09:20:06;8.2;;;5.7;;
25443;SDS011;13368;52.346;4.678;2023-04-15T09:25:00;8.6;;;5.4;;
25443;SDS011;13368;52.346;4.678;2023-04-15T09:30:00;7.5;;;5.0;;
25443;SDS011;13368;52.346;4.678;2023-04-15T09:35:07;6.3;;;4.5;;
25443;SDS011;13368;52.346;4.678;2023-04-15T09:40:00;10.3;;;6.3;;
25443;SDS011;13368;52.346;4.678;2023-04-15T09:45:07;8.8;;;5.7;;
25443;SDS011;13368;52.346;4.678;2023-04-15T09:50:00;9.0;;;5.2;;
25443;SDS011;13368;52.346;4.678;2023-04-15T09:55:00;9.4;;;6.0;;
25443;SDS011;13368;52.346;4.678;2023-04-15T10:00:00;9.3;;;5.6;;
25443;SDS011;13368;52.346;4.678;2023-04-15T10:05:00;9.5;;;5.1;;
25443;SDS011;13368;52.346;4.678;2023-04-15T10:10:00;7.8;;;5.0;;
25443;SDS011;13368;52.346;4.678;2023-04-15T10:15:02;7.4;;;5.5;;
25443;SDS011;13368;52.346;4.678;2023-04-15T10:20:00;6.6;;;4.8;;
25443;SDS011;13368;52.346;4.678;2023-04-15T10:25:00;8.7;;;5.1;;
25443;SDS011;13368;52.346;4.678;2023-04-15T10:30:00;6.6;;;4.5;;
25443;SDS011;13368;52.346;4.678;2023-04-15T10:35:00;8.4;;;4.4;;
25443;SDS011;13368;52.346;4.678;2023-04-15T10:40:00;8.1;;;4.8;;
25443;SDS011;13368;52.346;4.678;2023-04-15T10:45:00;10.2;;;5.8;;
25443;SDS011;13368;52.346;4.678;2023-04-15T10:50:00;8.8;;;5.0;;
25443;SDS011;13368;52.346;4.678;2023-04-15T10:55:01;8.1;;;4.8;;
25443;SDS011;13368;52.346;4.678;2023-04-15T11:00:01;6.6;;;5.0;;
25443;SDS011;13368;52.346;4.678;2023-04-15T11:05:00;7.5;;;4.8;;
25443;SDS011;13368;52.346;4.678;2023-04-15T11:10:00;7.2;;;5.1;;
25443;SDS011;13368;52.346;4.678;2023-04-15T11:20:00;7.4;;;3.7;;
25443;SDS011;13368;52.346;4.678;2023-04-15T11:25:00;7.9;;;3.6;;
25443;SDS011;13368;52.346;4.678;2023-04-15T11:30:00;4.8;;;3.4;;
25443;SDS011;13368;52.346;4.678;2023-04-15T11:35:00;7.2;;;3.8;;
25443;SDS011;13368;52.346;4.678;2023-04-15T11:40:01;6.4;;;3.5;;
25443;SDS011;13368;52.346;4.678;2023-04-15T11:45:05;4.2;;;3.5;;
25443;SDS011;13368;52.346;4.678;2023-04-15T11:55:02;4.5;;;3.0;;
25443;SDS011;13368;52.346;4.678;2023-04-15T12:00:00;4.3;;;3.0;;
25443;SDS011;13368;52.346;4.678;2023-04-15T12:05:02;5.2;;;3.3;;
25443;SDS011;13368;52.346;4.678;2023-04-15T12:10:00;5.2;;;2.7;;
25443;SDS011;13368;52.346;4.678;2023-04-15T12:15:00;5.4;;;2.9;;
25443;SDS011;13368;52.346;4.678;2023-04-15T12:20:00;6.5;;;3.3;;
25443;SDS011;13368;52.346;4.678;2023-04-15T12:25:00;5.8;;;2.8;;
25443;SDS011;13368;52.346;4.678;2023-04-15T12:30:02;3.9;;;2.7;;
25443;SDS011;13368;52.346;4.678;2023-04-15T12:35:00;3.7;;;2.8;;
25443;SDS011;13368;52.346;4.678;2023-04-15T12:40:00;5.9;;;2.6;;
25443;SDS011;13368;52.346;4.678;2023-04-15T12:45:00;5.2;;;2.6;;
25443;SDS011;13368;52.346;4.678;2023-04-15T12:50:00;4.1;;;2.8;;
25443;SDS011;13368;52.346;4.678;2023-04-15T12:55:00;4.6;;;3.2;;
25443;SDS011;13368;52.346;4.678;2023-04-15T13:00:00;6.8;;;3.3;;
25443;SDS011;13368;52.346;4.678;2023-04-15T13:05:00;4.5;;;2.6;;
25443;SDS011;13368;52.346;4.678;2023-04-15T13:10:00;4.6;;;3.2;;
25443;SDS011;13368;52.346;4.678;2023-04-15T13:15:00;4.8;;;2.9;;
25443;SDS011;13368;52.346;4.678;2023-04-15T13:20:00;4.5;;;2.9;;
25443;SDS011;13368;52.346;4.678;2023-04-15T13:25:00;5.9;;;3.1;;
25443;SDS011;13368;52.346;4.678;2023-04-15T13:30:00;4.1;;;2.9;;
25443;SDS011;13368;52.346;4.678;2023-04-15T13:35:00;4.7;;;2.5;;
25443;SDS011;13368;52.346;4.678;2023-04-15T13:40:00;6.6;;;2.9;;
25443;SDS011;13368;52.346;4.678;2023-04-15T13:45:00;5.1;;;3.0;;
25443;SDS011;13368;52.346;4.678;2023-04-15T13:50:00;6.2;;;3.0;;
25443;SDS011;13368;52.346;4.678;2023-04-15T13:55:00;4.6;;;2.8;;
25443;SDS011;13368;52.346;4.678;2023-04-15T14:00:00;5.2;;;3.2;;
25443;SDS011;13368;52.346;4.678;2023-04-15T14:05:00;5.9;;;2.8;;
25443;SDS011;13368;52.346;4.678;2023-04-15T14:10:00;3.9;;;2.6;;
25443;SDS011;13368;52.346;4.678;2023-04-15T14:15:00;3.4;;;2.4;;
25443;SDS011;13368;52.346;4.678;2023-04-15T14:20:00;6.7;;;2.9;;
25443;SDS011;13368;52.346;4.678;2023-04-15T14:25:00;5.2;;;2.9;;
25443;SDS011;13368;52.346;4.678;2023-04-15T14:30:00;3.4;;;2.3;;
25443;SDS011;13368;52.346;4.678;2023-04-15T14:35:00;4.1;;;2.4;;
25443;SDS011;13368;52.346;4.678;2023-04-15T14:40:00;5.1;;;2.5;;
25443;SDS011;13368;52.346;4.678;2023-04-15T14:45:00;6.2;;;2.9;;
25443;SDS011;13368;52.346;4.678;2023-04-15T14:50:00;4.4;;;2.9;;
25443;SDS011;13368;52.346;4.678;2023-04-15T14:55:00;6.3;;;3.5;;
25443;SDS011;13368;52.346;4.678;2023-04-15T15:00:00;12.4;;;4.0;;
25443;SDS011;13368;52.346;4.678;2023-04-15T15:05:00;6.5;;;3.3;;
25443;SDS011;13368;52.346;4.678;2023-04-15T15:10:00;4.2;;;2.7;;
25443;SDS011;13368;52.346;4.678;2023-04-15T15:15:01;4.2;;;2.8;;
25443;SDS011;13368;52.346;4.678;2023-04-15T15:20:00;4.9;;;3.0;;
25443;SDS011;13368;52.346;4.678;2023-04-15T15:25:00;3.9;;;2.6;;
25443;SDS011;13368;52.346;4.678;2023-04-15T15:30:00;7.1;;;3.7;;
25443;SDS011;13368;52.346;4.678;2023-04-15T15:35:00;7.7;;;3.5;;
25443;SDS011;13368;52.346;4.678;2023-04-15T15:40:00;5.5;;;3.1;;
25443;SDS011;13368;52.346;4.678;2023-04-15T15:45:01;6.2;;;2.9;;
25443;SDS011;13368;52.346;4.678;2023-04-15T15:50:00;8.2;;;3.1;;
25443;SDS011;13368;52.346;4.678;2023-04-15T15:55:00;4.7;;;2.8;;
25443;SDS011;13368;52.346;4.678;2023-04-15T16:00:00;7.6;;;3.6;;
25443;SDS011;13368;52.346;4.678;2023-04-15T16:05:00;6.8;;;2.8;;
25443;SDS011;13368;52.346;4.678;2023-04-15T16:10:00;6.3;;;2.8;;
25443;SDS011;13368;52.346;4.678;2023-04-15T16:15:00;8.8;;;2.9;;
25443;SDS011;13368;52.346;4.678;2023-04-15T16:20:00;6.7;;;3.3;;
25443;SDS011;13368;52.346;4.678;2023-04-15T16:25:00;9.7;;;3.7;;
25443;SDS011;13368;52.346;4.678;2023-04-15T16:30:00;5.0;;;2.9;;
25443;SDS011;13368;52.346;4.678;2023-04-15T16:35:00;5.6;;;2.6;;
25443;SDS011;13368;52.346;4.678;2023-04-15T16:40:00;4.9;;;2.5;;
25443;SDS011;13368;52.346;4.678;2023-04-15T16:45:00;8.3;;;2.4;;
25443;SDS011;13368;52.346;4.678;2023-04-15T16:50:00;6.3;;;2.3;;
25443;SDS011;13368;52.346;4.678;2023-04-15T16:55:00;9.4;;;2.7;;
25443;SDS011;13368;52.346;4.678;2023-04-15T17:00:00;6.8;;;2.8;;
25443;SDS011;13368;52.346;4.678;2023-04-15T17:05:00;8.6;;;2.5;;
25443;SDS011;13368;52.346;4.678;2023-04-15T17:10:00;6.8;;;2.3;;
25443;SDS011;13368;52.346;4.678;2023-04-15T17:15:00;12.2;;;2.7;;
25443;SDS011;13368;52.346;4.678;2023-04-15T17:20:00;5.6;;;2.4;;
25443;SDS011;13368;52.346;4.678;2023-04-15T17:25:00;5.7;;;1.9;;
25443;SDS011;13368;52.346;4.678;2023-04-15T17:30:00;6.6;;;2.2;;
25443;SDS011;13368;52.346;4.678;2023-04-15T17:35:00;7.6;;;1.9;;
25443;SDS011;13368;52.346;4.678;2023-04-15T17:40:00;5.0;;;2.0;;
25443;SDS011;13368;52.346;4.678;2023-04-15T17:45:00;7.2;;;1.9;;
25443;SDS011;13368;52.346;4.678;2023-04-15T17:50:00;9.0;;;2.3;;
25443;SDS011;13368;52.346;4.678;2023-04-15T17:55:00;6.0;;;2.3;;
25443;SDS011;13368;52.346;4.678;2023-04-15T18:00:00;6.1;;;1.6;;
25443;SDS011;13368;52.346;4.678;2023-04-15T18:05:00;4.3;;;1.6;;
25443;SDS011;13368;52.346;4.678;2023-04-15T18:10:00;9.8;;;2.8;;
25443;SDS011;13368;52.346;4.678;2023-04-15T18:15:00;12.7;;;2.6;;
25443;SDS011;13368;52.346;4.678;2023-04-15T18:20:00;8.7;;;2.7;;
25443;SDS011;13368;52.346;4.678;2023-04-15T18:25:00;20.8;;;5.3;;
25443;SDS011;13368;52.346;4.678;2023-04-15T18:30:00;5.9;;;2.4;;
25443;SDS011;13368;52.346;4.678;2023-04-15T18:35:00;7.0;;;2.3;;
25443;SDS011;13368;52.346;4.678;2023-04-15T18:40:00;5.6;;;1.8;;
25443;SDS011;13368;52.346;4.678;2023-04-15T18:45:00;4.6;;;2.2;;
25443;SDS011;13368;52.346;4.678;2023-04-15T18:50:00;13.4;;;3.4;;
25443;SDS011;13368;52.346;4.678;2023-04-15T18:55:00;13.2;;;6.5;;
25443;SDS011;13368;52.346;4.678;2023-04-15T19:00:00;8.9;;;3.3;;
25443;SDS011;13368;52.346;4.678;2023-04-15T19:05:00;7.7;;;2.6;;
25443;SDS011;13368;52.346;4.678;2023-04-15T19:10:01;4.6;;;2.3;;
25443;SDS011;13368;52.346;4.678;2023-04-15T19:15:00;6.1;;;2.6;;
25443;SDS011;13368;52.346;4.678;2023-04-15T19:20:00;8.9;;;2.6;;
25443;SDS011;13368;52.346;4.678;2023-04-15T19:25:00;5.8;;;2.6;;
25443;SDS011;13368;52.346;4.678;2023-04-15T19:30:00;7.3;;;2.8;;
25443;SDS011;13368;52.346;4.678;2023-04-15T19:35:00;11.2;;;3.1;;
25443;SDS011;13368;52.346;4.678;2023-04-15T19:40:00;5.5;;;2.3;;
25443;SDS011;13368;52.346;4.678;2023-04-15T19:45:00;6.2;;;2.7;;
25443;SDS011;13368;52.346;4.678;2023-04-15T19:50:00;6.4;;;2.3;;
25443;SDS011;13368;52.346;4.678;2023-04-15T19:55:00;5.6;;;2.3;;
25443;SDS011;13368;52.346;4.678;2023-04-15T20:00:00;6.2;;;1.9;;
25443;SDS011;13368;52.346;4.678;2023-04-15T20:05:00;3.4;;;1.9;;
25443;SDS011;13368;52.346;4.678;2023-04-15T20:10:00;5.0;;;1.7;;
25443;SDS011;13368;52.346;4.678;2023-04-15T20:15:00;6.3;;;1.8;;
25443;SDS011;13368;52.346;4.678;2023-04-15T20:20:00;5.4;;;2.2;;
25443;SDS011;13368;52.346;4.678;2023-04-15T20:25:00;5.1;;;1.9;;
25443;SDS011;13368;52.346;4.678;2023-04-15T20:30:00;8.2;;;2.5;;
25443;SDS011;13368;52.346;4.678;2023-04-15T20:35:00;4.0;;;1.9;;
25443;SDS011;13368;52.346;4.678;2023-04-15T20:40:00;8.6;;;2.4;;
25443;SDS011;13368;52.346;4.678;2023-04-15T20:45:00;8.2;;;2.2;;
25443;SDS011;13368;52.346;4.678;2023-04-15T20:50:00;4.8;;;2.2;;
25443;SDS011;13368;52.346;4.678;2023-04-15T20:55:00;6.4;;;2.5;;
25443;SDS011;13368;52.346;4.678;2023-04-15T21:00:00;5.8;;;2.1;;
25443;SDS011;13368;52.346;4.678;2023-04-15T21:05:00;6.2;;;2.0;;
25443;SDS011;13368;52.346;4.678;2023-04-15T21:10:00;4.4;;;2.2;;
25443;SDS011;13368;52.346;4.678;2023-04-15T21:15:00;7.5;;;2.0;;
25443;SDS011;13368;52.346;4.678;2023-04-15T21:20:00;7.2;;;2.1;;
25443;SDS011;13368;52.346;4.678;2023-04-15T21:25:00;8.1;;;2.3;;
25443;SDS011;13368;52.346;4.678;2023-04-15T21:30:00;5.6;;;2.4;;
25443;SDS011;13368;52.346;4.678;2023-04-15T21:35:00;4.8;;;2.5;;
25443;SDS011;13368;52.346;4.678;2023-04-15T21:40:00;4.6;;;2.0;;
25443;SDS011;13368;52.346;4.678;2023-04-15T21:45:00;3.9;;;2.3;;
25443;SDS011;13368;52.346;4.678;2023-04-15T21:50:00;6.5;;;2.8;;
25443;SDS011;13368;52.346;4.678;2023-04-15T21:55:00;6.8;;;2.6;;
25443;SDS011;13368;52.346;4.678;2023-04-15T22:00:00;8.4;;;2.5;;
25443;SDS011;13368;52.346;4.678;2023-04-15T22:05:00;11.4;;;2.9;;
25443;SDS011;13368;52.346;4.678;2023-04-15T22:10:00;10.1;;;2.7;;
25443;SDS011;13368;52.346;4.678;2023-04-15T22:15:00;6.7;;;2.8;;
25443;SDS011;13368;52.346;4.678;2023-04-15T22:20:00;9.6;;;3.0;;
25443;SDS011;13368;52.346;4.678;2023-04-15T22:25:00;9.2;;;2.6;;
25443;SDS011;13368;52.346;4.678;2023-04-15T22:30:00;9.5;;;2.5;;
25443;SDS011;13368;52.346;4.678;2023-04-15T22:35:00;7.8;;;2.8;;
25443;SDS011;13368;52.346;4.678;2023-04-15T22:40:00;9.8;;;2.9;;
25443;SDS011;13368;52.346;4.678;2023-04-15T22:45:00;8.5;;;2.6;;
25443;SDS011;13368;52.346;4.678;2023-04-15T22:50:00;8.6;;;2.5;;
25443;SDS011;13368;52.346;4.678;2023-04-15T22:55:00;10.9;;;3.0;;
25443;SDS011;13368;52.346;4.678;2023-04-15T23:00:00;11.8;;;2.8;;
25443;SDS011;13368;52.346;4.678;2023-04-15T23:05:00;10.8;;;3.5;;
25443;SDS011;13368;52.346;4.678;2023-04-15T23:10:00;11.6;;;4.5;;
25443;SDS011;13368;52.346;4.678;2023-04-15T23:15:00;12.0;;;3.7;;
25443;SDS011;13368;52.346;4.678;2023-04-15T23:20:00;10.2;;;3.7;;
25443;SDS011;13368;52.346;4.678;2023-04-15T23:25:00;7.6;;;3.5;;
25443;SDS011;13368;52.346;4.678;2023-04-15T23:30:00;7.9;;;4.0;;
25443;SDS011;13368;52.346;4.678;2023-04-15T23:35:00;11.9;;;4.6;;
25443;SDS011;13368;52.346;4.678;2023-04-15T23:40:00;9.8;;;3.9;;
25443;SDS011;13368;52.346;4.678;2023-04-15T23:45:00;9.4;;;4.4;;
25443;SDS011;13368;52.346;4.678;2023-04-15T23:50:00;12.9;;;4.1;;
25443;SDS011;13368;52.346;4.678;2023-04-15T23:55:00;11.9;;;4.4;;
